aviador You're here:

KCBM Decoded Metar

COLOMBUS in MS, USA
Report Time2018-07-18 09:56:00
UTC Time2018-07-18 10:58:45
Flight Rules vfr VFR
WindCalm
Visibility9999 m
Phenomena:N/A
Clouds:Scattered 004 Hf
Expected CloudBase > 400 ft AGL from Temp-Dew spread
CeilingNone
Temp23°C (ISA +8)
Dew Point22°C (94% RH)
QNH1015 hPa
Density Alt1,483 ft
Elevation220 ft
Report Wrong Elevation
Raw Report
KCBM 180956Z AUTO 00000KT 10SM SCT004 23/22 A2998 RMK AO2 SLP153
T02260222 $=

Extra information for KCBM:More info

Metar Taf Metar & Taf Last 4 Metars F.Rules Stats Wind Profile Meteogram Temp Stats Airport Information Weather charts Add Link Nearby VenuesMetar ALERT Operation Metar Decoded Social comments

AIRNAV info for KCBM